Time,TemperatureF,DewpointF,PressureIn,WindDirection,WindDirectionDegrees,WindSpeedMPH,WindSpeedGustMPH,Humidity,HourlyPrecipIn,Conditions,Clouds,dailyrainin,SoftwareType,DateUTC
2013-10-18 00:01:00,49.1,41.9,29.76,NNE,16,0.0,0.0,76,0.00,CLR,,0.00,WeatherDisplay:10.37,2013-10-18 04:01:00,
2013-10-18 00:02:00,49.2,42.0,29.76,NNE,16,0.0,0.0,76,0.00,CLR,,0.00,WeatherDisplay:10.37,2013-10-18 04:02:00,
2013-10-18 00:07:00,49.3,42.1,29.76,NNE,16,0.0,0.0,76,0.00,CLR,,0.00,WeatherDisplay:10.37,2013-10-18 04:07:00,
2013-10-18 00:12:00,49.4,42.1,29.76,NNE,16,0.0,0.0,76,0.00,CLR,,0.00,WeatherDisplay:10.37,2013-10-18 04:12:00,
2013-10-18 00:17:00,49.3,42.1,29.76,NNE,16,0.0,0.0,76,0.00,CLR,,0.00,WeatherDisplay:10.37,2013-10-18 04:17:00,
2013-10-18 00:22:00,49.1,41.9,29.76,NNE,16,0.0,0.0,76,0.00,CLR,,0.00,WeatherDisplay:10.37,2013-10-18 04:22:00,
2013-10-18 00:27:00,49.2,42.0,29.76,NNE,16,0.0,0.0,76,0.00,CLR,,0.00,WeatherDisplay:10.37,2013-10-18 04:27:00,
2013-10-18 00:33:00,49.1,41.9,29.76,NNE,16,0.0,0.0,76,0.00,CLR,,0.00,WeatherDisplay:10.37,2013-10-18 04:33:00,
2013-10-18 00:38:00,49.1,41.9,29.76,NNE,16,0.0,0.0,76,0.00,CLR,,0.00,WeatherDisplay:10.37,2013-10-18 04:38:00,
2013-10-18 00:43:00,49.4,42.1,29.76,NNE,16,0.0,0.0,76,0.00,CLR,,0.00,WeatherDisplay:10.37,2013-10-18 04:43:00,
2013-10-18 00:48:00,49.8,42.5,29.76,NNE,16,0.0,0.0,76,0.00,CLR,,0.00,WeatherDisplay:10.37,2013-10-18 04:48:00,
2013-10-18 00:53:00,50.1,42.8,29.76,NNE,16,0.0,0.0,76,0.00,CLR,,0.00,WeatherDisplay:10.37,2013-10-18 04:53:00,
2013-10-18 00:58:00,50.1,42.8,29.76,NNE,16,0.0,0.0,76,0.00,CLR,,0.00,WeatherDisplay:10.37,2013-10-18 04:58:00,
2013-10-18 01:03:00,49.9,42.6,29.76,NNE,16,0.0,0.0,76,0.00,CLR,,0.00,WeatherDisplay:10.37,2013-10-18 05:03:00,
2013-10-18 01:08:00,49.6,42.3,29.76,NNE,16,0.0,0.0,76,0.00,CLR,,0.00,WeatherDisplay:10.37,2013-10-18 05:08:00,
2013-10-18 01:13:00,49.3,42.1,29.76,NNE,16,0.0,0.0,76,0.00,CLR,,0.00,WeatherDisplay:10.37,2013-10-18 05:13:00,
2013-10-18 01:18:00,49.3,42.1,29.76,NNE,16,0.0,0.0,76,0.00,CLR,,0.00,WeatherDisplay:10.37,2013-10-18 05:18:00,
2013-10-18 01:23:00,49.8,42.5,29.76,NNE,16,0.0,0.0,76,0.00,CLR,,0.00,WeatherDisplay:10.37,2013-10-18 05:23:00,
2013-10-18 01:28:00,50.1,42.8,29.76,NNE,16,0.0,0.0,76,0.00,CLR,,0.00,WeatherDisplay:10.37,2013-10-18 05:28:00,
2013-10-18 01:33:00,50.2,42.9,29.76,NNE,16,0.0,0.0,76,0.00,CLR,,0.00,WeatherDisplay:10.37,2013-10-18 05:33:00,
2013-10-18 01:38:00,50.3,43.0,29.76,NNE,16,0.0,0.0,76,0.00,CLR,,0.00,WeatherDisplay:10.37,2013-10-18 05:38:00,
2013-10-18 01:43:00,50.4,43.1,29.76,NNE,16,0.0,0.0,76,0.01,RA,,0.01,WeatherDisplay:10.37,2013-10-18 05:43:00,
2013-10-18 01:48:00,49.9,42.6,29.76,NNE,16,0.0,0.0,76,0.01,CLR,,0.01,WeatherDisplay:10.37,2013-10-18 05:48:00,
2013-10-18 01:53:00,50.0,42.7,29.76,NNE,16,0.0,0.0,76,0.02,RA,,0.02,WeatherDisplay:10.37,2013-10-18 05:53:00,
2013-10-18 01:58:00,49.9,42.6,29.76,NNE,16,0.0,0.0,76,0.02,CLR,,0.02,WeatherDisplay:10.37,2013-10-18 05:58:00,
2013-10-18 02:03:00,50.3,43.0,29.76,NNE,16,0.0,0.0,76,0.03,RA,,0.03,WeatherDisplay:10.37,2013-10-18 06:03:00,
2013-10-18 02:08:00,50.3,43.0,29.76,NNE,16,0.0,0.0,76,0.03,CLR,,0.03,WeatherDisplay:10.37,2013-10-18 06:08:00,
2013-10-18 02:13:00,50.2,42.9,29.76,NNE,16,0.0,0.0,76,0.04,RA,,0.04,WeatherDisplay:10.37,2013-10-18 06:13:00,
2013-10-18 02:18:00,49.7,42.4,29.76,NNE,16,0.0,0.0,76,0.05,RA,,0.05,WeatherDisplay:10.37,2013-10-18 06:18:00,
2013-10-18 02:23:00,50.0,42.7,29.76,NNE,16,0.0,0.0,76,0.06,RA,,0.06,WeatherDisplay:10.37,2013-10-18 06:23:00,
2013-10-18 02:28:00,50.3,43.0,29.76,NNE,19,4.0,4.0,76,0.07,RA,,0.07,WeatherDisplay:10.37,2013-10-18 06:28:00,
2013-10-18 02:33:00,50.3,43.0,29.76,NNE,32,2.3,2.3,76,0.08,RA,,0.08,WeatherDisplay:10.37,2013-10-18 06:33:00,
2013-10-18 02:38:00,50.3,43.0,29.76,NNE,32,2.3,2.3,76,0.10,RA,,0.11,WeatherDisplay:10.37,2013-10-18 06:38:00,
2013-10-18 02:43:00,49.8,42.5,29.76,NNE,32,1.1,0.0,76,0.12,RA,,0.13,WeatherDisplay:10.37,2013-10-18 06:43:00,
2013-10-18 02:48:00,49.7,42.4,29.76,NNE,32,1.1,1.1,76,0.13,RA,,0.14,WeatherDisplay:10.37,2013-10-18 06:48:00,
2013-10-18 02:53:00,49.8,42.5,29.76,NNE,32,0.0,0.0,76,0.12,CLR,,0.14,WeatherDisplay:10.37,2013-10-18 06:53:00,
2013-10-18 02:58:00,49.8,42.5,29.76,NNE,32,0.0,0.0,76,0.14,RA,,0.16,WeatherDisplay:10.37,2013-10-18 06:58:00,
2013-10-18 03:03:00,49.8,42.5,29.76,NNE,32,0.0,0.0,76,0.16,RA,,0.19,WeatherDisplay:10.37,2013-10-18 07:03:00,
2013-10-18 03:08:00,49.8,42.5,29.76,NNE,32,0.0,0.0,76,0.17,CLR,,0.20,WeatherDisplay:10.37,2013-10-18 07:08:00,
2013-10-18 03:13:00,49.9,42.6,29.76,NNE,32,0.0,0.0,76,0.17,CLR,,0.21,WeatherDisplay:10.37,2013-10-18 07:13:00,
2013-10-18 03:18:00,49.9,42.6,29.76,NNE,32,0.0,0.0,76,0.16,CLR,,0.21,WeatherDisplay:10.37,2013-10-18 07:18:00,
2013-10-18 03:23:00,49.9,42.6,29.76,NNE,32,0.0,0.0,76,0.15,CLR,,0.21,WeatherDisplay:10.37,2013-10-18 07:23:00,
2013-10-18 03:28:00,49.9,42.6,29.76,NNE,32,0.0,0.0,76,0.15,CLR,,0.22,WeatherDisplay:10.37,2013-10-18 07:28:00,
2013-10-18 03:33:00,50.0,42.7,29.76,NNE,32,0.0,0.0,76,0.14,CLR,,0.22,WeatherDisplay:10.37,2013-10-18 07:33:00,
2013-10-18 03:38:00,50.2,42.9,29.76,NNE,32,0.0,0.0,76,0.12,CLR,,0.22,WeatherDisplay:10.37,2013-10-18 07:38:00,
2013-10-18 03:43:00,50.2,42.9,29.76,NNE,32,0.0,0.0,76,0.09,CLR,,0.22,WeatherDisplay:10.37,2013-10-18 07:43:00,
2013-10-18 03:48:00,50.3,43.0,29.76,NNE,32,0.0,0.0,76,0.08,CLR,,0.22,WeatherDisplay:10.37,2013-10-18 07:48:00,
2013-10-18 03:53:00,50.3,43.0,29.76,NNE,32,1.1,1.1,76,0.10,RA,,0.24,WeatherDisplay:10.37,2013-10-18 07:53:00,
2013-10-18 03:58:00,50.3,43.0,29.76,NNE,32,0.0,0.0,76,0.08,CLR,,0.24,WeatherDisplay:10.37,2013-10-18 07:58:00,
2013-10-18 04:03:00,50.4,43.1,29.76,NNE,32,0.0,0.0,76,0.05,CLR,,0.24,WeatherDisplay:10.37,2013-10-18 08:03:00,
2013-10-18 04:08:00,50.4,43.1,29.76,NNE,32,0.0,0.0,76,0.05,RA,,0.25,WeatherDisplay:10.37,2013-10-18 08:08:00,
2013-10-18 04:13:00,50.5,43.2,29.76,NNE,32,0.0,0.0,76,0.04,CLR,,0.25,WeatherDisplay:10.37,2013-10-18 08:13:00,
2013-10-18 04:18:00,50.5,43.2,29.76,NNE,32,0.0,0.0,76,0.04,CLR,,0.25,WeatherDisplay:10.37,2013-10-18 08:18:00,
2013-10-18 04:23:00,50.6,50.6,29.60,NNE,32,0.0,0.0,100,0.04,-RA,,0.25,WeatherDisplay:10.37,2013-10-18 08:23:00,
2013-10-18 04:28:00,50.6,50.6,29.60,NNE,32,0.0,0.0,100,0.03,-RA,,0.25,WeatherDisplay:10.37,2013-10-18 08:28:00,
2013-10-18 04:33:00,50.7,50.7,29.60,NNE,32,0.0,0.0,100,0.03,-RA,,0.25,WeatherDisplay:10.37,2013-10-18 08:33:00,
2013-10-18 04:38:00,50.7,50.7,29.60,NNE,32,0.0,0.0,100,0.03,-RA,,0.25,WeatherDisplay:10.37,2013-10-18 08:38:00,
2013-10-18 04:43:00,50.5,50.5,29.60,NNE,32,1.0,1.0,100,0.03,-RA,,0.25,WeatherDisplay:10.37,2013-10-18 08:43:00,
2013-10-18 04:48:00,50.6,50.6,29.60,NNE,32,0.0,0.0,100,0.03,-RA,,0.25,WeatherDisplay:10.37,2013-10-18 08:48:00,
2013-10-18 04:53:00,50.6,50.6,29.60,NNE,32,2.3,2.3,100,0.01,-RA,,0.25,WeatherDisplay:10.37,2013-10-18 08:53:00,
2013-10-18 04:58:00,50.6,50.6,29.60,NNE,32,0.0,0.0,100,0.01,-RA,,0.25,WeatherDisplay:10.37,2013-10-18 08:58:00,
2013-10-18 05:03:00,50.6,50.6,29.60,NNE,32,0.0,0.0,100,0.01,-RA,,0.25,WeatherDisplay:10.37,2013-10-18 09:03:00,
2013-10-18 05:08:00,50.6,50.6,29.60,NNE,32,0.0,0.0,100,0.00,-RA,,0.25,WeatherDisplay:10.37,2013-10-18 09:08:00,
2013-10-18 05:13:00,50.6,50.6,29.59,NNE,32,1.1,1.1,100,0.00,OVC,,0.25,WeatherDisplay:10.37,2013-10-18 09:13:00,
2013-10-18 05:18:00,50.6,50.6,29.59,NNE,32,1.1,1.1,100,0.00,OVC,,0.25,WeatherDisplay:10.37,2013-10-18 09:18:00,
2013-10-18 05:23:00,50.6,50.6,29.59,NNE,32,2.3,2.3,100,0.00,OVC,,0.25,WeatherDisplay:10.37,2013-10-18 09:23:00,
2013-10-18 05:28:00,50.7,50.7,29.59,NNE,23,1.1,1.1,100,0.01,RA,,0.26,WeatherDisplay:10.37,2013-10-18 09:28:00,
2013-10-18 05:33:00,50.7,50.7,29.59,NNE,23,0.0,0.0,100,0.01,OVC,,0.26,WeatherDisplay:10.37,2013-10-18 09:33:00,
2013-10-18 05:38:00,50.8,50.8,29.59,NNE,23,0.0,0.0,100,0.01,OVC,,0.26,WeatherDisplay:10.37,2013-10-18 09:38:00,
2013-10-18 05:43:00,50.8,50.8,29.59,NNE,23,0.0,0.0,100,0.01,OVC,,0.26,WeatherDisplay:10.37,2013-10-18 09:43:00,
2013-10-18 05:48:00,50.7,50.7,29.59,NNE,23,0.0,0.0,100,0.01,OVC,,0.26,WeatherDisplay:10.37,2013-10-18 09:48:00,
2013-10-18 05:53:00,50.6,50.6,29.59,NNE,23,0.0,0.0,100,0.01,OVC,,0.26,WeatherDisplay:10.37,2013-10-18 09:53:00,
2013-10-18 05:58:00,50.5,50.5,29.59,NNE,23,0.0,0.0,100,0.01,OVC,,0.26,WeatherDisplay:10.37,2013-10-18 09:58:00,
2013-10-18 06:03:00,50.4,50.4,29.61,NNE,23,0.0,0.0,100,0.01,OVC,,0.26,WeatherDisplay:10.37,2013-10-18 10:03:00,
2013-10-18 06:08:00,50.5,50.5,29.61,NNE,23,0.0,0.0,100,0.01,OVC,,0.26,WeatherDisplay:10.37,2013-10-18 10:08:00,
2013-10-18 06:13:00,50.5,50.5,29.61,NNE,23,0.0,0.0,100,0.01,OVC,,0.26,WeatherDisplay:10.37,2013-10-18 10:13:00,
2013-10-18 06:18:00,50.5,50.5,29.61,NNE,23,0.0,0.0,100,0.01,OVC,,0.26,WeatherDisplay:10.37,2013-10-18 10:18:00,
2013-10-18 06:23:00,50.3,50.3,29.61,NNE,23,0.0,0.0,100,0.01,OVC,,0.26,WeatherDisplay:10.37,2013-10-18 10:23:00,
2013-10-18 06:28:00,50.2,50.2,29.61,NNE,23,2.3,2.3,100,0.00,OVC,,0.26,WeatherDisplay:10.37,2013-10-18 10:28:00,
2013-10-18 06:33:00,50.3,50.3,29.61,NNE,23,0.0,0.0,100,0.00,OVC,,0.26,WeatherDisplay:10.37,2013-10-18 10:33:00,
2013-10-18 06:38:00,50.3,50.3,29.61,NNE,23,0.0,0.0,100,0.00,OVC,,0.26,WeatherDisplay:10.37,2013-10-18 10:38:00,
2013-10-18 06:43:00,50.6,50.6,29.61,NNE,23,1.1,1.1,100,0.00,OVC,,0.26,WeatherDisplay:10.37,2013-10-18 10:43:00,
2013-10-18 06:48:00,50.8,50.8,29.61,NNE,22,2.3,2.3,100,0.00,OVC,,0.26,WeatherDisplay:10.37,2013-10-18 10:48:00,
2013-10-18 06:53:00,51.0,51.0,29.61,NNE,19,3.5,3.5,100,0.00,OVC,,0.26,WeatherDisplay:10.37,2013-10-18 10:53:00,
2013-10-18 06:58:00,50.8,50.8,29.61,NNE,18,3.5,3.5,100,0.00,OVC,,0.26,WeatherDisplay:10.37,2013-10-18 10:58:00,
2013-10-18 07:03:00,50.7,50.7,29.61,NNE,17,3.5,3.5,100,0.00,OVC,,0.26,WeatherDisplay:10.37,2013-10-18 11:03:00,
2013-10-18 07:08:00,50.6,50.6,29.61,NNE,16,3.5,3.5,100,0.00,OVC,,0.26,WeatherDisplay:10.37,2013-10-18 11:08:00,
2013-10-18 07:13:00,50.5,50.5,29.64,NNE,16,3.5,3.5,100,0.00,FEW,,0.26,WeatherDisplay:10.37,2013-10-18 11:13:00,
2013-10-18 07:18:00,50.4,50.4,29.64,NNE,15,3.5,3.5,100,0.00,FEW,,0.26,WeatherDisplay:10.37,2013-10-18 11:18:00,
2013-10-18 07:23:00,50.2,50.2,29.64,NNE,14,3.5,3.5,100,0.00,FEW,,0.26,WeatherDisplay:10.37,2013-10-18 11:23:00,
2013-10-18 07:28:00,50.3,50.3,29.64,NNE,14,3.5,3.5,100,0.00,FEW,,0.26,WeatherDisplay:10.37,2013-10-18 11:28:00,
2013-10-18 07:33:00,50.4,50.4,29.64,NNE,14,3.5,3.5,100,0.00,FEW,,0.26,WeatherDisplay:10.37,2013-10-18 11:33:00,
2013-10-18 07:38:00,50.3,50.3,29.64,NNE,13,2.3,2.3,100,0.00,FEW,,0.26,WeatherDisplay:10.37,2013-10-18 11:38:00,
2013-10-18 07:43:00,50.1,50.1,29.64,NNE,13,2.3,2.3,100,0.00,FEW,,0.26,WeatherDisplay:10.37,2013-10-18 11:43:00,
2013-10-18 07:48:00,50.3,50.3,29.64,NNE,13,3.5,3.5,100,0.00,FEW,,0.26,WeatherDisplay:10.37,2013-10-18 11:48:00,
2013-10-18 07:53:00,50.5,50.5,29.64,WSW,245,4.6,4.6,100,0.00,FEW,,0.26,WeatherDisplay:10.37,2013-10-18 11:53:00,
2013-10-18 07:58:00,50.5,50.5,29.64,WSW,245,3.5,3.5,100,0.00,FEW,,0.26,WeatherDisplay:10.37,2013-10-18 11:58:00,
2013-10-18 08:03:00,50.8,50.8,29.64,WSW,246,3.5,3.5,100,0.00,FEW,,0.26,WeatherDisplay:10.37,2013-10-18 12:03:00,
2013-10-18 08:08:00,51.3,51.3,29.64,West,279,3.5,3.5,100,0.00,FEW,,0.26,WeatherDisplay:10.37,2013-10-18 12:08:00,
2013-10-18 08:13:00,51.1,49.1,29.67,WNW,284,2.3,2.3,93,0.00,CLR,,0.26,WeatherDisplay:10.37,2013-10-18 12:13:00,
2013-10-18 08:18:00,51.5,49.5,29.67,WNW,284,2.3,2.3,93,0.00,CLR,,0.26,WeatherDisplay:10.37,2013-10-18 12:18:00,
2013-10-18 08:23:00,51.6,49.6,29.67,WNW,284,2.3,2.3,93,0.00,CLR,,0.26,WeatherDisplay:10.37,2013-10-18 12:23:00,
2013-10-18 08:28:00,51.7,49.7,29.67,WNW,284,2.3,2.3,93,0.00,CLR,,0.26,WeatherDisplay:10.37,2013-10-18 12:28:00,
2013-10-18 08:33:00,52.0,50.0,29.67,WNW,284,2.0,2.0,93,0.00,CLR,,0.26,WeatherDisplay:10.37,2013-10-18 12:33:00,
2013-10-18 08:38:00,52.1,50.1,29.67,WNW,284,2.3,2.3,93,0.00,CLR,,0.26,WeatherDisplay:10.37,2013-10-18 12:38:00,
2013-10-18 08:43:00,52.7,50.7,29.67,WNW,284,1.1,1.1,93,0.00,CLR,,0.26,WeatherDisplay:10.37,2013-10-18 12:43:00,
2013-10-18 08:48:00,52.8,50.8,29.67,WNW,284,3.5,3.5,93,0.00,CLR,,0.26,WeatherDisplay:10.37,2013-10-18 12:48:00,
2013-10-18 08:53:00,53.2,51.2,29.67,WNW,295,3.5,3.5,93,0.00,CLR,,0.26,WeatherDisplay:10.37,2013-10-18 12:53:00,
2013-10-18 08:58:00,53.5,51.5,29.67,NW,310,3.5,3.5,93,0.00,CLR,,0.26,WeatherDisplay:10.37,2013-10-18 12:58:00,
2013-10-18 09:03:00,53.8,47.8,29.69,NW,311,2.3,2.3,80,0.00,CLR,,0.26,WeatherDisplay:10.37,2013-10-18 13:03:00,
2013-10-18 09:08:00,53.9,47.9,29.69,NW,310,3.5,3.5,80,0.00,CLR,,0.26,WeatherDisplay:10.37,2013-10-18 13:08:00,
2013-10-18 09:13:00,54.3,48.3,29.69,NW,306,3.5,3.5,80,0.00,CLR,,0.26,WeatherDisplay:10.37,2013-10-18 13:13:00,
2013-10-18 09:18:00,54.5,48.5,29.69,NW,304,4.0,4.0,80,0.00,CLR,,0.26,WeatherDisplay:10.37,2013-10-18 13:18:00,
2013-10-18 09:23:00,54.7,48.6,29.69,WNW,299,3.5,3.5,80,0.00,CLR,,0.26,WeatherDisplay:10.37,2013-10-18 13:23:00,
2013-10-18 09:28:00,55.0,48.9,29.69,WNW,288,6.0,6.0,80,0.00,CLR,,0.26,WeatherDisplay:10.37,2013-10-18 13:28:00,
2013-10-18 09:33:00,54.9,48.8,29.69,WNW,288,5.8,5.8,80,0.00,CLR,,0.26,WeatherDisplay:10.37,2013-10-18 13:33:00,
2013-10-18 09:38:00,55.1,49.0,29.69,WNW,286,5.8,5.8,80,0.00,CLR,,0.26,WeatherDisplay:10.37,2013-10-18 13:38:00,
2013-10-18 09:43:00,54.9,48.8,29.69,WNW,292,3.5,3.5,80,0.00,CLR,,0.26,WeatherDisplay:10.37,2013-10-18 13:43:00,
2013-10-18 09:48:00,55.0,48.9,29.69,WNW,292,3.5,3.5,80,0.00,CLR,,0.26,WeatherDisplay:10.37,2013-10-18 13:48:00,
2013-10-18 09:53:00,54.8,48.7,29.69,WNW,292,3.5,3.5,80,0.00,CLR,,0.26,WeatherDisplay:10.37,2013-10-18 13:53:00,
2013-10-18 09:58:00,54.6,48.6,29.69,West,277,3.5,3.5,80,0.00,CLR,,0.26,WeatherDisplay:10.37,2013-10-18 13:58:00,
2013-10-18 10:03:00,54.5,48.5,29.69,West,279,3.5,3.5,80,0.00,CLR,,0.26,WeatherDisplay:10.37,2013-10-18 14:03:00,
2013-10-18 10:08:00,55.7,49.6,29.69,West,277,3.5,3.5,80,0.00,CLR,,0.26,WeatherDisplay:10.37,2013-10-18 14:08:00,
2013-10-18 10:13:00,56.2,46.2,29.71,West,268,3.5,3.5,69,0.00,SCT,,0.26,WeatherDisplay:10.37,2013-10-18 14:13:00,
2013-10-18 10:18:00,56.0,46.0,29.71,West,276,4.6,4.6,69,0.00,SCT,,0.26,WeatherDisplay:10.37,2013-10-18 14:18:00,
2013-10-18 10:23:00,56.6,46.5,29.71,NW,306,3.5,3.5,69,0.00,SCT,,0.26,WeatherDisplay:10.37,2013-10-18 14:23:00,
2013-10-18 10:28:00,57.1,47.0,29.71,NW,306,3.5,3.5,69,0.00,SCT,,0.26,WeatherDisplay:10.37,2013-10-18 14:28:00,
2013-10-18 10:33:00,56.8,46.7,29.71,WNW,301,3.5,3.5,69,0.00,SCT,,0.26,WeatherDisplay:10.37,2013-10-18 14:33:00,
2013-10-18 10:38:00,56.5,46.4,29.71,WNW,303,3.5,3.5,69,0.00,SCT,,0.26,WeatherDisplay:10.37,2013-10-18 14:38:00,
2013-10-18 10:43:00,55.8,45.8,29.71,WNW,291,3.5,3.5,69,0.00,SCT,,0.26,WeatherDisplay:10.37,2013-10-18 14:43:00,
2013-10-18 10:48:00,55.5,45.5,29.71,WSW,258,3.5,3.5,69,0.00,SCT,,0.26,WeatherDisplay:10.37,2013-10-18 14:48:00,
2013-10-18 10:53:00,55.6,45.6,29.71,West,273,3.5,3.5,69,0.00,SCT,,0.26,WeatherDisplay:10.37,2013-10-18 14:53:00,
2013-10-18 10:58:00,56.8,46.7,29.71,West,274,4.6,4.6,69,0.00,SCT,,0.26,WeatherDisplay:10.37,2013-10-18 14:58:00,
2013-10-18 11:03:00,57.6,47.5,29.71,WSW,257,3.5,3.5,69,0.00,SCT,,0.26,WeatherDisplay:10.37,2013-10-18 15:03:00,
2013-10-18 11:08:00,58.1,48.0,29.71,WSW,251,6.0,6.0,69,0.00,SCT,,0.26,WeatherDisplay:10.37,2013-10-18 15:08:00,
2013-10-18 11:13:00,57.5,44.6,29.73,West,275,4.0,4.0,62,0.00,CLR,,0.26,WeatherDisplay:10.37,2013-10-18 15:13:00,
2013-10-18 11:18:00,57.1,44.2,29.73,WNW,285,5.8,5.8,62,0.00,CLR,,0.26,WeatherDisplay:10.37,2013-10-18 15:18:00,
2013-10-18 11:23:00,57.1,44.2,29.73,WSW,251,4.6,4.6,62,0.00,CLR,,0.26,WeatherDisplay:10.37,2013-10-18 15:23:00,
2013-10-18 11:28:00,57.3,44.4,29.73,WNW,291,5.8,5.8,62,0.00,CLR,,0.26,WeatherDisplay:10.37,2013-10-18 15:28:00,
2013-10-18 11:33:00,58.6,45.6,29.73,NW,314,4.6,4.6,62,0.00,CLR,,0.26,WeatherDisplay:10.37,2013-10-18 15:33:00,
2013-10-18 11:38:00,58.7,45.7,29.73,NW,310,3.5,3.5,62,0.00,CLR,,0.26,WeatherDisplay:10.37,2013-10-18 15:38:00,
2013-10-18 11:43:00,58.5,45.5,29.73,NW,313,6.0,6.0,62,0.00,CLR,,0.26,WeatherDisplay:10.37,2013-10-18 15:43:00,
2013-10-18 11:48:00,59.7,46.7,29.73,NW,311,2.3,2.3,62,0.00,CLR,,0.26,WeatherDisplay:10.37,2013-10-18 15:48:00,
2013-10-18 11:53:00,59.2,46.2,29.73,NW,311,4.6,4.6,62,0.00,CLR,,0.26,WeatherDisplay:10.37,2013-10-18 15:53:00,
2013-10-18 11:58:00,58.6,45.6,29.73,WNW,301,4.0,4.0,62,0.00,CLR,,0.26,WeatherDisplay:10.37,2013-10-18 15:58:00,
2013-10-18 12:03:00,57.8,40.8,29.73,NW,305,9.2,9.2,53,0.00,FEW,,0.26,WeatherDisplay:10.37,2013-10-18 16:03:00,
2013-10-18 12:08:00,57.7,40.7,29.73,West,279,4.6,4.6,53,0.00,FEW,,0.26,WeatherDisplay:10.37,2013-10-18 16:08:00,
2013-10-18 12:13:00,58.4,41.3,29.73,NW,315,6.9,6.9,53,0.00,FEW,,0.26,WeatherDisplay:10.37,2013-10-18 16:13:00,
2013-10-18 12:18:00,58.8,41.7,29.73,NW,310,5.0,5.0,53,0.00,FEW,,0.26,WeatherDisplay:10.37,2013-10-18 16:18:00,
2013-10-18 12:23:00,59.4,42.3,29.73,WNW,303,7.0,7.0,53,0.00,FEW,,0.26,WeatherDisplay:10.37,2013-10-18 16:23:00,
2013-10-18 12:28:00,60.2,43.0,29.73,NW,309,4.0,4.0,53,0.00,FEW,,0.26,WeatherDisplay:10.37,2013-10-18 16:28:00,
2013-10-18 12:33:00,61.1,43.8,29.73,SW,234,4.0,4.0,53,0.00,FEW,,0.26,WeatherDisplay:10.37,2013-10-18 16:33:00,
2013-10-18 12:38:00,59.3,42.2,29.73,SW,234,3.5,3.5,53,0.00,FEW,,0.26,WeatherDisplay:10.37,2013-10-18 16:38:00,
2013-10-18 12:43:00,58.7,41.6,29.73,WSW,244,4.0,4.0,53,0.00,FEW,,0.26,WeatherDisplay:10.37,2013-10-18 16:43:00,
2013-10-18 12:48:00,58.3,41.2,29.73,West,275,4.6,4.6,53,0.00,FEW,,0.26,WeatherDisplay:10.37,2013-10-18 16:48:00,
2013-10-18 12:53:00,58.0,41.0,29.73,West,274,3.5,3.5,53,0.00,FEW,,0.26,WeatherDisplay:10.37,2013-10-18 16:53:00,
2013-10-18 12:58:00,57.8,40.8,29.73,WNW,301,5.8,5.8,53,0.00,FEW,,0.26,WeatherDisplay:10.37,2013-10-18 16:58:00,
2013-10-18 13:03:00,59.6,38.8,29.73,NW,310,3.5,3.5,46,0.00,FEW,,0.26,WeatherDisplay:10.37,2013-10-18 17:03:00,
2013-10-18 13:08:00,58.5,37.8,29.73,WNW,298,4.0,4.0,46,0.00,FEW,,0.26,WeatherDisplay:10.37,2013-10-18 17:08:00,
2013-10-18 13:13:00,58.2,37.5,29.73,WNW,299,3.5,3.5,46,0.00,FEW,,0.26,WeatherDisplay:10.37,2013-10-18 17:13:00,
2013-10-18 13:18:00,59.1,38.3,29.73,SW,218,5.8,5.8,46,0.00,FEW,,0.26,WeatherDisplay:10.37,2013-10-18 17:18:00,
2013-10-18 13:23:00,58.0,37.3,29.73,West,280,4.6,4.6,46,0.00,FEW,,0.26,WeatherDisplay:10.37,2013-10-18 17:23:00,
2013-10-18 13:28:00,57.5,36.9,29.73,WSW,254,5.8,5.8,46,0.00,FEW,,0.26,WeatherDisplay:10.37,2013-10-18 17:28:00,
2013-10-18 13:33:00,57.6,37.0,29.73,West,265,2.3,2.3,46,0.00,FEW,,0.26,WeatherDisplay:10.37,2013-10-18 17:33:00,
2013-10-18 13:35:00,57.6,37.0,29.73,West,265,3.5,3.5,46,0.00,FEW,,0.26,WeatherDisplay:10.37,2013-10-18 17:35:00,
2013-10-18 13:40:00,57.7,37.0,29.73,West,265,3.5,3.5,46,0.00,FEW,,0.26,WeatherDisplay:10.37,2013-10-18 17:40:00,
2013-10-18 13:45:00,57.7,37.0,29.73,WSW,255,5.8,5.8,46,0.00,FEW,,0.26,WeatherDisplay:10.37,2013-10-18 17:45:00,
2013-10-18 13:50:00,57.3,36.7,29.73,WSW,252,3.5,3.5,46,0.00,FEW,,0.26,WeatherDisplay:10.37,2013-10-18 17:50:00,
2013-10-18 13:55:00,57.2,36.6,29.73,WNW,300,3.5,3.5,46,0.00,FEW,,0.26,WeatherDisplay:10.37,2013-10-18 17:55:00,
2013-10-18 14:00:00,58.3,37.6,29.73,WNW,300,2.3,2.3,46,0.00,FEW,,0.26,WeatherDisplay:10.37,2013-10-18 18:00:00,
2013-10-18 14:05:00,58.6,37.9,29.73,WNW,300,2.3,2.3,46,0.00,FEW,,0.26,WeatherDisplay:10.37,2013-10-18 18:05:00,
2013-10-18 14:10:00,57.8,37.1,29.73,NW,316,3.5,3.5,46,0.00,FEW,,0.26,WeatherDisplay:10.37,2013-10-18 18:10:00,
2013-10-18 14:15:00,58.3,37.6,29.73,WSW,254,2.3,2.3,46,0.00,FEW,,0.26,WeatherDisplay:10.37,2013-10-18 18:15:00,
2013-10-18 14:20:00,58.2,37.5,29.73,NW,321,3.5,3.5,46,0.00,FEW,,0.26,WeatherDisplay:10.37,2013-10-18 18:20:00,
2013-10-18 14:25:00,58.5,39.4,29.75,WNW,293,3.5,3.5,49,0.00,BKN,,0.26,WeatherDisplay:10.37,2013-10-18 18:25:00,
2013-10-18 14:30:00,59.0,39.9,29.75,WNW,302,3.5,3.5,49,0.00,BKN,,0.26,WeatherDisplay:10.37,2013-10-18 18:30:00,
2013-10-18 14:35:00,59.4,40.2,29.75,West,269,3.5,3.5,49,0.00,BKN,,0.26,WeatherDisplay:10.37,2013-10-18 18:35:00,
2013-10-18 14:40:00,58.5,39.4,29.75,WSW,246,3.5,3.5,49,0.00,BKN,,0.26,WeatherDisplay:10.37,2013-10-18 18:40:00,
2013-10-18 14:45:00,60.2,41.0,29.75,West,280,3.5,3.5,49,0.00,BKN,,0.26,WeatherDisplay:10.37,2013-10-18 18:45:00,
2013-10-18 14:50:00,60.6,41.3,29.75,WSW,246,4.0,4.0,49,0.00,BKN,,0.26,WeatherDisplay:10.37,2013-10-18 18:50:00,
2013-10-18 14:55:00,59.8,40.6,29.75,WSW,253,3.5,3.5,49,0.00,BKN,,0.26,WeatherDisplay:10.37,2013-10-18 18:55:00,
2013-10-18 15:00:00,59.9,40.7,29.75,WSW,237,3.5,3.5,49,0.00,BKN,,0.26,WeatherDisplay:10.37,2013-10-18 19:00:00,
2013-10-18 15:05:00,59.7,40.5,29.75,West,265,3.5,3.5,49,0.00,BKN,,0.26,WeatherDisplay:10.37,2013-10-18 19:05:00,
2013-10-18 15:10:00,59.0,39.9,29.75,West,263,3.5,3.5,49,0.00,BKN,,0.26,WeatherDisplay:10.37,2013-10-18 19:10:00,
2013-10-18 15:15:00,58.6,40.5,29.76,NW,310,4.6,4.6,51,0.00,OVC,,0.26,WeatherDisplay:10.37,2013-10-18 19:15:00,
2013-10-18 15:20:00,58.5,40.4,29.76,West,267,4.6,4.6,51,0.00,OVC,,0.26,WeatherDisplay:10.37,2013-10-18 19:20:00,
2013-10-18 15:25:00,58.3,40.2,29.76,WSW,246,4.6,4.6,51,0.00,OVC,,0.26,WeatherDisplay:10.37,2013-10-18 19:25:00,
2013-10-18 15:30:00,58.4,40.3,29.76,NW,306,4.0,4.0,51,0.00,OVC,,0.26,WeatherDisplay:10.37,2013-10-18 19:30:00,
2013-10-18 15:35:00,58.5,40.4,29.76,WNW,301,3.5,3.5,51,0.00,OVC,,0.26,WeatherDisplay:10.37,2013-10-18 19:35:00,
2013-10-18 15:40:00,58.2,40.1,29.76,WNW,301,3.5,3.5,51,0.00,OVC,,0.26,WeatherDisplay:10.37,2013-10-18 19:40:00,
2013-10-18 15:45:00,57.9,39.9,29.76,WNW,289,3.5,3.5,51,0.00,OVC,,0.26,WeatherDisplay:10.37,2013-10-18 19:45:00,
2013-10-18 15:50:00,58.2,40.1,29.76,WNW,294,3.5,3.5,51,0.00,OVC,,0.26,WeatherDisplay:10.37,2013-10-18 19:50:00,
2013-10-18 15:55:00,59.1,41.0,29.76,WNW,294,2.3,2.3,51,0.00,OVC,,0.26,WeatherDisplay:10.37,2013-10-18 19:55:00,
2013-10-18 16:00:00,59.3,41.2,29.76,WNW,294,1.1,1.1,51,0.00,OVC,,0.26,WeatherDisplay:10.37,2013-10-18 20:00:00,
2013-10-18 16:05:00,59.4,41.3,29.76,WNW,294,3.5,3.5,51,0.00,OVC,,0.26,WeatherDisplay:10.37,2013-10-18 20:05:00,
2013-10-18 16:10:00,58.9,40.8,29.76,WSW,246,3.5,3.5,51,0.00,OVC,,0.26,WeatherDisplay:10.37,2013-10-18 20:10:00,
2013-10-18 16:15:00,58.0,37.9,29.77,WSW,246,3.0,3.0,47,0.00,OVC,,0.26,WeatherDisplay:10.37,2013-10-18 20:15:00,
2013-10-18 16:20:00,58.3,38.1,29.77,WSW,255,2.3,2.3,47,0.00,OVC,,0.26,WeatherDisplay:10.37,2013-10-18 20:20:00,
2013-10-18 16:25:00,58.5,38.3,29.77,WSW,256,3.5,3.5,47,0.00,OVC,,0.26,WeatherDisplay:10.37,2013-10-18 20:25:00,
2013-10-18 16:30:00,58.2,38.1,29.77,WSW,256,3.5,3.5,47,0.00,OVC,,0.26,WeatherDisplay:10.37,2013-10-18 20:30:00,
2013-10-18 16:35:00,57.8,37.7,29.77,WSW,256,2.3,2.3,47,0.00,OVC,,0.26,WeatherDisplay:10.37,2013-10-18 20:35:00,
2013-10-18 16:40:00,57.4,37.3,29.77,WSW,256,2.3,2.3,47,0.00,OVC,,0.26,WeatherDisplay:10.37,2013-10-18 20:40:00,
2013-10-18 16:45:00,57.4,37.3,29.77,WSW,250,4.6,4.6,47,0.00,OVC,,0.26,WeatherDisplay:10.37,2013-10-18 20:45:00,
2013-10-18 16:50:00,57.8,37.7,29.77,WSW,250,2.3,2.3,47,0.00,OVC,,0.26,WeatherDisplay:10.37,2013-10-18 20:50:00,
2013-10-18 16:55:00,57.8,37.7,29.77,WSW,248,3.5,3.5,47,0.00,OVC,,0.26,WeatherDisplay:10.37,2013-10-18 20:55:00,
2013-10-18 17:00:00,57.9,37.8,29.77,WSW,248,2.3,2.3,47,0.00,OVC,,0.26,WeatherDisplay:10.37,2013-10-18 21:00:00,
2013-10-18 17:05:00,57.4,37.3,29.77,WSW,248,3.5,3.5,47,0.00,OVC,,0.26,WeatherDisplay:10.37,2013-10-18 21:05:00,
2013-10-18 17:10:00,57.4,37.3,29.77,WSW,248,2.3,2.3,47,0.00,OVC,,0.26,WeatherDisplay:10.37,2013-10-18 21:10:00,
2013-10-18 17:15:00,57.2,38.2,29.77,WSW,248,0.0,0.0,49,0.00,OVC,,0.26,WeatherDisplay:10.37,2013-10-18 21:15:00,
2013-10-18 17:20:00,57.1,38.1,29.77,WSW,248,0.0,0.0,49,0.00,OVC,,0.26,WeatherDisplay:10.37,2013-10-18 21:20:00,
2013-10-18 17:25:00,56.8,37.8,29.77,WSW,248,3.5,3.5,49,0.00,OVC,,0.26,WeatherDisplay:10.37,2013-10-18 21:25:00,
2013-10-18 17:30:00,56.6,37.6,29.77,WSW,248,2.3,2.3,49,0.00,OVC,,0.26,WeatherDisplay:10.37,2013-10-18 21:30:00,
2013-10-18 17:35:00,56.3,37.4,29.77,WSW,245,3.5,3.5,49,0.00,OVC,,0.26,WeatherDisplay:10.37,2013-10-18 21:35:00,
2013-10-18 17:40:00,55.9,37.0,29.77,WSW,245,2.3,2.3,49,0.00,OVC,,0.26,WeatherDisplay:10.37,2013-10-18 21:40:00,
2013-10-18 17:45:00,55.5,36.6,29.77,WSW,245,2.3,2.3,49,0.00,OVC,,0.26,WeatherDisplay:10.37,2013-10-18 21:45:00,
2013-10-18 17:50:00,55.3,36.5,29.77,WSW,245,2.3,2.3,49,0.00,OVC,,0.26,WeatherDisplay:10.37,2013-10-18 21:50:00,
2013-10-18 17:55:00,55.1,36.3,29.77,WSW,245,1.1,1.1,49,0.00,OVC,,0.26,WeatherDisplay:10.37,2013-10-18 21:55:00,
2013-10-18 18:00:00,54.8,36.0,29.77,WSW,245,1.1,1.1,49,0.00,OVC,,0.26,WeatherDisplay:10.37,2013-10-18 22:00:00,
2013-10-18 18:05:00,54.6,35.8,29.77,WSW,245,0.0,0.1,49,0.00,OVC,,0.26,WeatherDisplay:10.37,2013-10-18 22:05:00,
2013-10-18 18:10:00,54.4,35.6,29.77,WSW,245,2.3,2.3,49,0.00,OVC,,0.26,WeatherDisplay:10.37,2013-10-18 22:10:00,
2013-10-18 18:15:00,54.2,36.5,29.80,WSW,245,2.3,2.3,51,0.00,SCT,,0.26,WeatherDisplay:10.37,2013-10-18 22:15:00,
2013-10-18 18:20:00,53.8,36.1,29.80,WSW,244,1.1,0.0,51,0.00,SCT,,0.26,WeatherDisplay:10.37,2013-10-18 22:20:00,
2013-10-18 18:25:00,54.1,36.4,29.80,WSW,245,2.3,2.3,51,0.00,SCT,,0.26,WeatherDisplay:10.37,2013-10-18 22:25:00,
2013-10-18 18:30:00,53.4,35.7,29.80,WSW,244,2.3,2.3,51,0.00,SCT,,0.26,WeatherDisplay:10.37,2013-10-18 22:30:00,
2013-10-18 18:35:00,53.3,35.6,29.80,WSW,245,2.3,2.3,51,0.00,SCT,,0.26,WeatherDisplay:10.37,2013-10-18 22:35:00,
2013-10-18 18:40:00,53.2,35.5,29.80,WSW,245,0.0,0.0,51,0.00,SCT,,0.26,WeatherDisplay:10.37,2013-10-18 22:40:00,
2013-10-18 18:45:00,52.7,35.1,29.80,WSW,244,0.0,0.0,51,0.00,SCT,,0.26,WeatherDisplay:10.37,2013-10-18 22:45:00,
2013-10-18 18:50:00,52.6,35.0,29.80,WSW,244,0.0,0.0,51,0.00,SCT,,0.26,WeatherDisplay:10.37,2013-10-18 22:50:00,
2013-10-18 18:55:00,52.5,34.9,29.80,WSW,244,0.0,0.0,51,0.00,SCT,,0.26,WeatherDisplay:10.37,2013-10-18 22:55:00,
2013-10-18 19:00:00,52.4,34.8,29.80,WSW,245,0.0,0.0,51,0.00,SCT,,0.26,WeatherDisplay:10.37,2013-10-18 23:00:00,
2013-10-18 19:05:00,52.6,35.0,29.80,WSW,245,0.0,0.0,51,0.00,SCT,,0.26,WeatherDisplay:10.37,2013-10-18 23:05:00,
2013-10-18 19:10:00,52.2,34.6,29.80,WSW,244,0.0,0.0,51,0.00,SCT,,0.26,WeatherDisplay:10.37,2013-10-18 23:10:00,
2013-10-18 19:15:00,52.1,39.1,29.81,WSW,245,0.0,0.0,61,0.00,CLR,,0.26,WeatherDisplay:10.37,2013-10-18 23:15:00,
2013-10-18 19:20:00,51.7,38.7,29.81,WSW,244,0.0,0.0,61,0.00,CLR,,0.26,WeatherDisplay:10.37,2013-10-18 23:20:00,
2013-10-18 19:25:00,51.4,38.4,29.81,WSW,244,0.0,0.0,61,0.00,CLR,,0.26,WeatherDisplay:10.37,2013-10-18 23:25:00,
2013-10-18 19:30:00,51.4,38.4,29.81,WSW,244,0.0,0.0,61,0.00,CLR,,0.26,WeatherDisplay:10.37,2013-10-18 23:30:00,
2013-10-18 19:35:00,50.2,37.3,29.81,WSW,244,1.1,1.1,61,0.00,CLR,,0.26,WeatherDisplay:10.37,2013-10-18 23:35:00,
2013-10-18 19:40:00,50.3,37.4,29.81,WSW,244,0.0,0.0,61,0.00,CLR,,0.26,WeatherDisplay:10.37,2013-10-18 23:40:00,
2013-10-18 19:45:00,49.9,37.0,29.81,WSW,245,0.0,0.0,61,0.00,CLR,,0.26,WeatherDisplay:10.37,2013-10-18 23:45:00,
2013-10-18 19:50:00,49.0,36.1,29.81,WSW,244,0.0,0.0,61,0.00,CLR,,0.26,WeatherDisplay:10.37,2013-10-18 23:50:00,
2013-10-18 19:55:00,49.2,36.3,29.81,WSW,245,0.0,0.0,61,0.00,CLR,,0.26,WeatherDisplay:10.37,2013-10-18 23:55:00,
2013-10-18 20:00:00,48.4,35.6,29.81,WSW,244,0.0,0.0,61,0.00,CLR,,0.26,WeatherDisplay:10.37,2013-10-19 00:00:00,
2013-10-18 20:05:00,47.9,35.1,29.81,WSW,244,0.0,0.0,61,0.00,CLR,,0.26,WeatherDisplay:10.37,2013-10-19 00:05:00,
2013-10-18 20:10:00,47.8,35.0,29.81,WSW,244,0.0,0.0,61,0.00,CLR,,0.26,WeatherDisplay:10.37,2013-10-19 00:10:00,
2013-10-18 20:15:00,47.6,39.7,29.83,WSW,245,0.0,0.0,74,0.00,CLR,,0.26,WeatherDisplay:10.37,2013-10-19 00:15:00,
2013-10-18 20:20:00,47.5,39.6,29.83,WSW,244,0.0,0.0,74,0.00,CLR,,0.26,WeatherDisplay:10.37,2013-10-19 00:20:00,
2013-10-18 20:25:00,47.3,39.4,29.83,WSW,245,0.0,0.0,74,0.00,CLR,,0.26,WeatherDisplay:10.37,2013-10-19 00:25:00,
2013-10-18 20:30:00,47.0,39.1,29.83,WSW,244,0.0,0.0,74,0.00,CLR,,0.26,WeatherDisplay:10.37,2013-10-19 00:30:00,
2013-10-18 20:35:00,46.8,38.9,29.83,WSW,244,0.0,0.0,74,0.00,CLR,,0.26,WeatherDisplay:10.37,2013-10-19 00:35:00,
2013-10-18 20:40:00,46.7,38.9,29.83,WSW,244,0.0,0.0,74,0.00,CLR,,0.26,WeatherDisplay:10.37,2013-10-19 00:40:00,
2013-10-18 20:45:00,46.7,38.9,29.83,WSW,244,0.0,0.0,74,0.00,CLR,,0.26,WeatherDisplay:10.37,2013-10-19 00:45:00,
2013-10-18 20:50:00,46.7,38.9,29.83,WSW,244,0.0,0.0,74,0.00,CLR,,0.26,WeatherDisplay:10.37,2013-10-19 00:50:00,
2013-10-18 20:55:00,47.0,39.1,29.83,WSW,244,0.0,0.0,74,0.00,CLR,,0.26,WeatherDisplay:10.37,2013-10-19 00:55:00,
2013-10-18 21:00:00,46.8,38.9,29.83,WSW,245,0.0,0.0,74,0.00,CLR,,0.26,WeatherDisplay:10.37,2013-10-19 01:00:00,
2013-10-18 21:05:00,47.7,43.4,29.85,WSW,244,0.0,0.0,85,0.00,CLR,,0.26,WeatherDisplay:10.37,2013-10-19 01:05:00,
2013-10-18 21:10:00,47.6,43.3,29.85,WSW,244,0.0,0.0,85,0.00,CLR,,0.26,WeatherDisplay:10.37,2013-10-19 01:10:00,
2013-10-18 21:15:00,47.1,42.8,29.85,WSW,245,0.0,0.0,85,0.00,CLR,,0.26,WeatherDisplay:10.37,2013-10-19 01:15:00,
2013-10-18 21:20:00,46.9,42.6,29.85,WSW,244,0.0,0.0,85,0.00,CLR,,0.26,WeatherDisplay:10.37,2013-10-19 01:20:00,
2013-10-18 21:25:00,46.2,41.9,29.85,WSW,244,0.0,0.0,85,0.00,CLR,,0.26,WeatherDisplay:10.37,2013-10-19 01:25:00,
2013-10-18 21:30:00,45.8,41.5,29.85,WSW,244,0.0,0.0,85,0.00,CLR,,0.26,WeatherDisplay:10.37,2013-10-19 01:30:00,
2013-10-18 21:35:00,45.9,41.6,29.85,WSW,244,0.0,0.0,85,0.00,CLR,,0.26,WeatherDisplay:10.37,2013-10-19 01:35:00,
2013-10-18 21:40:00,46.5,42.2,29.85,WSW,244,0.0,0.0,85,0.00,CLR,,0.26,WeatherDisplay:10.37,2013-10-19 01:40:00,
2013-10-18 21:45:00,46.5,42.2,29.85,WSW,245,0.0,0.0,85,0.00,CLR,,0.26,WeatherDisplay:10.37,2013-10-19 01:45:00,
2013-10-18 21:50:00,46.4,42.1,29.85,WSW,244,0.0,0.0,85,0.00,CLR,,0.26,WeatherDisplay:10.37,2013-10-19 01:50:00,
2013-10-18 21:55:00,47.0,42.7,29.85,WSW,244,0.0,0.0,85,0.00,CLR,,0.26,WeatherDisplay:10.37,2013-10-19 01:55:00,
2013-10-18 22:00:00,46.5,42.2,29.85,WSW,244,0.0,0.0,85,0.00,CLR,,0.26,WeatherDisplay:10.37,2013-10-19 02:00:00,
2013-10-18 22:05:00,45.2,41.0,29.85,WSW,244,0.0,0.0,85,0.00,CLR,,0.26,WeatherDisplay:10.37,2013-10-19 02:05:00,
2013-10-18 22:10:00,44.8,40.6,29.85,NW,315,2.3,2.3,85,0.00,CLR,,0.26,WeatherDisplay:10.37,2013-10-19 02:10:00,
2013-10-18 22:15:00,46.7,39.5,29.87,NW,315,0.0,0.0,76,0.00,CLR,,0.26,WeatherDisplay:10.37,2013-10-19 02:15:00,
2013-10-18 22:20:00,46.2,39.1,29.87,NW,315,1.0,1.0,76,0.00,CLR,,0.26,WeatherDisplay:10.37,2013-10-19 02:20:00,
2013-10-18 22:25:00,45.3,38.2,29.87,NW,315,2.3,2.3,76,0.00,CLR,,0.26,WeatherDisplay:10.37,2013-10-19 02:25:00,
2013-10-18 22:30:00,45.9,38.8,29.87,NW,315,0.0,0.0,76,0.00,CLR,,0.26,WeatherDisplay:10.37,2013-10-19 02:30:00,
2013-10-18 22:35:00,45.9,38.8,29.87,NW,315,0.0,0.0,76,0.00,CLR,,0.26,WeatherDisplay:10.37,2013-10-19 02:35:00,
2013-10-18 22:40:00,45.7,38.6,29.87,NW,315,0.0,0.0,76,0.00,CLR,,0.26,WeatherDisplay:10.37,2013-10-19 02:40:00,
2013-10-18 22:45:00,44.5,37.4,29.87,NW,315,0.0,0.0,76,0.00,CLR,,0.26,WeatherDisplay:10.37,2013-10-19 02:45:00,
2013-10-18 22:50:00,44.7,37.6,29.87,NW,315,0.0,0.0,76,0.00,CLR,,0.26,WeatherDisplay:10.37,2013-10-19 02:50:00,
2013-10-18 22:55:00,43.5,36.4,29.87,NW,315,3.5,0.0,76,0.00,CLR,,0.26,WeatherDisplay:10.37,2013-10-19 02:55:00,
2013-10-18 23:00:00,44.8,37.7,29.87,NW,315,0.0,0.0,76,0.00,CLR,,0.26,WeatherDisplay:10.37,2013-10-19 03:00:00,
2013-10-18 23:05:00,44.6,36.5,29.88,NW,315,1.1,0.0,73,0.00,CLR,,0.26,WeatherDisplay:10.37,2013-10-19 03:05:00,
2013-10-18 23:10:00,43.2,35.1,29.88,NW,315,0.0,0.0,73,0.00,CLR,,0.26,WeatherDisplay:10.37,2013-10-19 03:10:00,
2013-10-18 23:15:00,44.3,36.2,29.88,NW,315,0.0,0.0,73,0.00,CLR,,0.26,WeatherDisplay:10.37,2013-10-19 03:15:00,
2013-10-18 23:20:00,42.4,34.4,29.88,NW,315,0.0,0.0,73,0.00,CLR,,0.26,WeatherDisplay:10.37,2013-10-19 03:20:00,
2013-10-18 23:25:00,43.6,35.5,29.88,NW,315,0.0,0.0,73,0.00,CLR,,0.26,WeatherDisplay:10.37,2013-10-19 03:25:00,
2013-10-18 23:30:00,43.9,35.8,29.88,NW,315,0.0,0.0,73,0.00,CLR,,0.26,WeatherDisplay:10.37,2013-10-19 03:30:00,
2013-10-18 23:35:00,42.2,34.2,29.88,NW,315,0.0,0.0,73,0.00,CLR,,0.26,WeatherDisplay:10.37,2013-10-19 03:35:00,
2013-10-18 23:40:00,43.0,34.9,29.88,NW,315,0.0,0.0,73,0.00,CLR,,0.26,WeatherDisplay:10.37,2013-10-19 03:40:00,
2013-10-18 23:45:00,42.9,34.8,29.88,NW,315,0.0,0.0,73,0.00,CLR,,0.26,WeatherDisplay:10.37,2013-10-19 03:45:00,
2013-10-18 23:50:00,42.5,34.5,29.88,NW,315,0.0,0.0,73,0.00,CLR,,0.26,WeatherDisplay:10.37,2013-10-19 03:50:00,
2013-10-18 23:55:00,41.8,33.8,29.88,NW,315,0.0,0.0,73,0.00,CLR,,0.26,WeatherDisplay:10.37,2013-10-19 03:55:00,